createdAt,value
2023-03-27T00:00:17.062Z,81.31
2023-03-27T00:02:49.095Z,81.49
2023-03-27T00:05:22.845Z,81.54
2023-03-27T00:07:55.921Z,81.47
2023-03-27T00:10:26.883Z,81.49
2023-03-27T00:12:57.350Z,81.52
2023-03-27T00:15:27.387Z,81.68
2023-03-27T00:17:58.950Z,81.53
2023-03-27T00:20:31.573Z,81.56
2023-03-27T00:23:02.650Z,81.62
2023-03-27T00:25:33.257Z,81.44
2023-03-27T00:28:03.275Z,81.70
2023-03-27T00:30:34.424Z,81.72
2023-03-27T00:33:04.764Z,81.77
2023-03-27T00:35:37.553Z,81.88
2023-03-27T00:38:08.023Z,82.02
2023-03-27T00:40:37.969Z,82.22
2023-03-27T00:43:22.764Z,82.17
2023-03-27T00:45:55.701Z,82.26
2023-03-27T00:48:27.364Z,82.20
2023-03-27T00:51:01.494Z,82.21
2023-03-27T00:53:32.316Z,82.00
2023-03-27T00:56:04.605Z,81.86
2023-03-27T00:58:40.373Z,81.68
2023-03-27T01:01:12.953Z,81.59
2023-03-27T01:03:44.961Z,81.40
2023-03-27T01:06:18.825Z,81.41
2023-03-27T01:08:49.329Z,81.38
2023-03-27T01:11:29.798Z,81.12
2023-03-27T01:14:11.397Z,81.18
2023-03-27T01:16:49.680Z,81.15
2023-03-27T01:19:48.826Z,81.04
2023-03-27T01:22:46.301Z,81.11
2023-03-27T01:25:36.083Z,81.16
2023-03-27T01:28:19.837Z,81.18
2023-03-27T01:30:54.909Z,81.19
2023-03-27T01:33:42.575Z,81.40
2023-03-27T01:36:28.040Z,81.40
2023-03-27T01:39:20.562Z,81.61
2023-03-27T01:41:57.543Z,81.70
2023-03-27T01:44:42.964Z,81.70
2023-03-27T01:47:24.639Z,81.72
2023-03-27T01:49:58.884Z,81.80
2023-03-27T01:52:32.434Z,81.64
2023-03-27T01:55:10.128Z,81.74
2023-03-27T01:57:50.676Z,81.86
2023-03-27T02:00:25.384Z,82.02
2023-03-27T02:02:59.528Z,82.13
2023-03-27T02:05:35.152Z,82.44
2023-03-27T02:08:11.401Z,82.52
2023-03-27T02:10:48.933Z,82.56
2023-03-27T02:13:23.089Z,82.86
2023-03-27T02:15:53.895Z,82.97
2023-03-27T02:18:31.759Z,83.23
2023-03-27T02:21:02.591Z,83.41
2023-03-27T02:23:33.571Z,83.51
2023-03-27T02:26:06.384Z,83.67
2023-03-27T02:28:42.909Z,83.69
2023-03-27T02:31:34.831Z,83.88
2023-03-27T02:34:29.474Z,83.95
2023-03-27T02:37:06.892Z,83.91
2023-03-27T02:39:44.847Z,84.13
2023-03-27T02:42:23.872Z,84.19
2023-03-27T02:45:01.362Z,84.23
2023-03-27T02:47:37.362Z,84.47
2023-03-27T02:50:13.313Z,84.38
2023-03-27T02:52:47.043Z,84.62
2023-03-27T02:55:21.126Z,84.52
2023-03-27T02:57:59.693Z,84.43
2023-03-27T03:00:30.596Z,84.27
2023-03-27T03:03:08.669Z,84.28
2023-03-27T03:05:41.392Z,84.11
2023-03-27T03:08:11.586Z,84.03
2023-03-27T03:10:46.694Z,83.75
2023-03-27T03:13:20.819Z,83.53
2023-03-27T03:15:50.918Z,83.09
2023-03-27T03:18:20.752Z,82.87
2023-03-27T03:20:50.659Z,82.57
2023-03-27T03:23:20.473Z,82.41
2023-03-27T03:25:52.846Z,82.22
2023-03-27T03:28:26.234Z,82.15
2023-03-27T03:30:59.257Z,82.06
2023-03-27T03:33:30.300Z,81.87
2023-03-27T03:36:02.393Z,81.72
2023-03-27T03:38:38.210Z,81.97
2023-03-27T03:41:09.653Z,82.08
2023-03-27T03:43:42.106Z,82.01
2023-03-27T03:46:12.026Z,82.23
2023-03-27T03:48:41.932Z,82.07
2023-03-27T03:51:11.984Z,82.17
2023-03-27T03:53:41.859Z,82.18
2023-03-27T03:56:12.278Z,82.12
2023-03-27T03:58:44.734Z,82.29
2023-03-27T04:01:14.535Z,82.28
2023-03-27T04:03:44.393Z,82.30
2023-03-27T04:06:14.347Z,82.09
2023-03-27T04:08:44.797Z,82.18
2023-03-27T04:11:14.634Z,82.24
2023-03-27T04:13:47.046Z,82.18
2023-03-27T04:16:17.021Z,82.30
2023-03-27T04:18:46.936Z,82.35
2023-03-27T04:21:18.092Z,82.35
2023-03-27T04:23:49.430Z,82.28
2023-03-27T04:26:19.391Z,82.34
2023-03-27T04:28:51.963Z,82.42
2023-03-27T04:31:21.788Z,82.61
2023-03-27T04:33:52.460Z,82.73
2023-03-27T04:36:22.814Z,82.70
2023-03-27T04:38:52.741Z,82.88
2023-03-27T04:41:22.649Z,82.87
2023-03-27T04:43:56.079Z,83.22
2023-03-27T04:46:25.962Z,83.48
2023-03-27T04:48:56.670Z,83.68
2023-03-27T04:51:27.180Z,84.03
2023-03-27T04:53:57.467Z,84.27
2023-03-27T04:56:27.444Z,84.68
2023-03-27T04:59:00.540Z,84.87
2023-03-27T05:01:30.453Z,85.07
2023-03-27T05:04:02.648Z,85.46
2023-03-27T05:06:33.133Z,85.59
2023-03-27T05:09:03.551Z,85.72
2023-03-27T05:11:34.560Z,85.88
2023-03-27T05:14:07.264Z,86.16
2023-03-27T05:16:37.266Z,86.24
2023-03-27T05:19:07.327Z,86.55
2023-03-27T05:21:37.450Z,86.68
2023-03-27T05:24:08.232Z,86.70
2023-03-27T05:26:39.448Z,86.86
2023-03-27T05:29:12.328Z,87.04
2023-03-27T05:31:42.135Z,87.12
2023-03-27T05:34:11.987Z,87.18
2023-03-27T05:36:41.784Z,87.26
2023-03-27T05:39:11.562Z,87.26
2023-03-27T05:41:41.592Z,87.36
2023-03-27T05:44:14.032Z,87.25
2023-03-27T05:46:44.013Z,87.34
2023-03-27T05:49:14.170Z,87.14
2023-03-27T05:51:47.139Z,87.11
2023-03-27T05:54:17.365Z,87.38
2023-03-27T05:56:47.195Z,87.34
2023-03-27T05:59:20.681Z,87.38
2023-03-27T06:01:51.112Z,87.53
2023-03-27T06:04:22.478Z,87.71
2023-03-27T06:06:52.302Z,87.67
2023-03-27T06:09:22.129Z,87.52
2023-03-27T06:11:52.213Z,87.41
2023-03-27T06:14:24.654Z,86.94
2023-03-27T06:16:54.846Z,86.69
2023-03-27T06:19:25.034Z,86.34
2023-03-27T06:21:54.907Z,86.09
2023-03-27T06:24:24.779Z,85.73
2023-03-27T06:26:56.461Z,85.30
2023-03-27T06:29:29.809Z,85.10
2023-03-27T06:32:01.931Z,84.87
2023-03-27T06:34:31.706Z,84.74
2023-03-27T06:37:03.822Z,84.57
2023-03-27T06:39:33.610Z,84.47
2023-03-27T06:42:03.650Z,84.40
2023-03-27T06:44:36.245Z,84.40
2023-03-27T06:47:06.659Z,84.33
2023-03-27T06:49:36.565Z,84.10
2023-03-27T06:52:07.074Z,83.95
2023-03-27T06:54:37.047Z,83.80
2023-03-27T06:57:07.014Z,83.63
2023-03-27T06:59:39.464Z,83.53
2023-03-27T07:02:09.807Z,83.54
2023-03-27T07:04:40.832Z,83.47
2023-03-27T07:07:11.521Z,83.65
2023-03-27T07:09:41.474Z,84.01
2023-03-27T07:12:11.958Z,84.22
2023-03-27T07:14:44.476Z,84.27
2023-03-27T07:17:14.581Z,84.52
2023-03-27T07:19:44.486Z,84.53
2023-03-27T07:22:14.449Z,84.79
2023-03-27T07:24:44.304Z,84.79
2023-03-27T07:27:14.398Z,84.82
2023-03-27T07:29:46.982Z,84.80
2023-03-27T07:32:29.785Z,84.82
2023-03-27T07:35:07.108Z,84.96
2023-03-27T07:37:38.289Z,85.37
2023-03-27T07:40:13.453Z,85.56
2023-03-27T07:42:48.633Z,86.02
2023-03-27T07:45:22.771Z,86.18
2023-03-27T07:47:52.673Z,86.29
2023-03-27T07:50:24.652Z,86.65
2023-03-27T07:52:54.471Z,86.82
2023-03-27T07:55:24.343Z,87.06
2023-03-27T07:58:01.562Z,87.31
2023-03-27T08:00:35.722Z,87.39
2023-03-27T08:03:10.237Z,87.37
2023-03-27T08:05:41.000Z,87.36
2023-03-27T08:08:11.315Z,87.34
2023-03-27T08:10:42.100Z,87.26
2023-03-27T08:13:12.852Z,87.22
2023-03-27T08:15:45.424Z,87.09
2023-03-27T08:18:15.363Z,86.90
2023-03-27T08:20:46.016Z,86.74
2023-03-27T08:23:16.638Z,86.36
2023-03-27T08:25:49.343Z,86.11
2023-03-27T08:28:19.224Z,85.72
2023-03-27T08:30:52.090Z,85.37
2023-03-27T08:33:22.490Z,84.89
2023-03-27T08:35:52.902Z,84.40
2023-03-27T08:38:27.048Z,83.91
2023-03-27T08:40:59.509Z,83.29
2023-03-27T08:43:33.551Z,82.64
2023-03-27T08:46:11.712Z,82.15
2023-03-27T08:48:47.356Z,81.76
2023-03-27T08:51:23.030Z,81.30
2023-03-27T08:53:58.477Z,80.88
2023-03-27T08:56:29.056Z,80.52
2023-03-27T08:58:59.036Z,80.20
2023-03-27T09:01:35.749Z,79.80
2023-03-27T09:04:14.682Z,79.46
2023-03-27T09:06:54.872Z,79.30
2023-03-27T09:09:38.917Z,79.03
2023-03-27T09:12:16.888Z,78.71
2023-03-27T09:14:49.613Z,78.33
2023-03-27T09:17:27.470Z,77.90
2023-03-27T09:20:02.139Z,77.73
2023-03-27T09:22:37.146Z,77.48
2023-03-27T09:25:19.326Z,77.32
2023-03-27T09:27:55.159Z,77.10
2023-03-27T09:30:29.791Z,76.98
2023-03-27T09:33:07.575Z,76.68
2023-03-27T09:35:42.495Z,76.26
2023-03-27T09:38:29.932Z,75.91
2023-03-27T09:41:06.872Z,75.44
2023-03-27T09:43:44.496Z,75.41
2023-03-27T09:46:21.002Z,75.20
2023-03-27T09:49:00.658Z,74.96
2023-03-27T09:51:47.698Z,74.81
2023-03-27T09:54:19.252Z,74.61
2023-03-27T09:56:53.526Z,74.56
2023-03-27T09:59:35.579Z,74.52
2023-03-27T10:02:34.626Z,74.45
2023-03-27T10:05:23.376Z,74.39
2023-03-27T10:08:43.219Z,74.32
2023-03-27T10:12:02.096Z,74.22
2023-03-27T10:14:34.851Z,74.08
2023-03-27T10:17:08.284Z,73.91
2023-03-27T10:19:42.633Z,73.76
2023-03-27T10:22:29.175Z,73.51
2023-03-27T10:25:03.788Z,73.28
2023-03-27T10:27:37.210Z,73.02
2023-03-27T10:30:30.505Z,72.97
2023-03-27T10:33:00.488Z,72.65
2023-03-27T10:35:36.708Z,72.53
2023-03-27T10:40:59.366Z,72.43
2023-03-27T10:43:40.903Z,72.49
2023-03-27T10:46:15.299Z,72.54
2023-03-27T10:48:55.269Z,72.51
2023-03-27T10:51:53.271Z,72.42
2023-03-27T10:54:37.323Z,72.33
2023-03-27T10:57:13.211Z,72.16
2023-03-27T10:59:48.544Z,72.22
2023-03-27T11:02:21.983Z,72.41
2023-03-27T11:05:00.026Z,72.58
2023-03-27T11:07:34.139Z,72.91
2023-03-27T11:10:18.302Z,73.25
2023-03-27T11:12:54.013Z,73.63
2023-03-27T11:15:31.130Z,74.04
2023-03-27T11:18:05.911Z,74.51
2023-03-27T11:20:44.419Z,74.93
2023-03-27T11:23:20.564Z,75.45
2023-03-27T11:26:00.209Z,75.90
2023-03-27T11:28:43.037Z,76.51
2023-03-27T11:31:24.809Z,76.88
2023-03-27T11:34:01.128Z,77.10
2023-03-27T11:36:40.098Z,77.11
2023-03-27T11:39:18.315Z,76.95
2023-03-27T11:41:54.716Z,76.88
2023-03-27T11:44:29.610Z,76.62
2023-03-27T11:47:27.154Z,76.33
2023-03-27T11:50:36.753Z,75.91
2023-03-27T11:53:31.735Z,75.60
2023-03-27T11:56:14.057Z,75.47
2023-03-27T11:58:56.896Z,75.43
2023-03-27T12:01:30.963Z,75.39
2023-03-27T12:04:11.613Z,75.54
2023-03-27T12:06:50.389Z,75.65
2023-03-27T12:09:37.813Z,75.50
2023-03-27T12:12:20.749Z,75.41
2023-03-27T12:15:07.681Z,75.38
2023-03-27T12:17:52.839Z,75.40
2023-03-27T12:20:52.768Z,75.54
2023-03-27T12:23:54.126Z,75.64
2023-03-27T12:26:38.280Z,75.86
2023-03-27T12:29:24.584Z,76.14
2023-03-27T12:32:09.916Z,76.50
2023-03-27T12:34:57.071Z,76.79
2023-03-27T12:37:30.267Z,77.02
2023-03-27T12:40:02.404Z,77.14
2023-03-27T12:42:53.208Z,77.18
2023-03-27T12:45:27.713Z,77.30
2023-03-27T12:48:24.331Z,77.61
2023-03-27T12:51:00.063Z,77.72
2023-03-27T12:53:52.810Z,77.79
2023-03-27T12:56:34.250Z,77.85
2023-03-27T12:59:06.561Z,77.88
2023-03-27T13:01:58.419Z,78.09
2023-03-27T13:04:56.707Z,78.24
2023-03-27T13:07:31.648Z,78.37
2023-03-27T13:10:22.685Z,78.57
2023-03-27T13:13:23.454Z,78.79
2023-03-27T13:16:32.894Z,78.88
2023-03-27T13:19:22.357Z,79.15
2023-03-27T13:22:14.928Z,79.33
2023-03-27T13:25:02.941Z,79.35
2023-03-27T13:27:46.988Z,79.30
2023-03-27T13:30:46.054Z,79.37
2023-03-27T13:33:19.539Z,79.46
2023-03-27T13:36:11.761Z,79.48
2023-03-27T13:39:25.066Z,79.30
2023-03-27T13:42:04.648Z,79.38
2023-03-27T13:44:50.013Z,79.23
2023-03-27T13:48:04.056Z,79.07
2023-03-27T13:50:54.959Z,78.87
2023-03-27T13:53:51.349Z,78.74
2023-03-27T13:56:41.326Z,78.67
2023-03-27T13:59:32.588Z,78.48
2023-03-27T14:02:26.402Z,78.33
2023-03-27T14:05:25.263Z,78.18
2023-03-27T14:08:13.691Z,78.04
2023-03-27T14:10:58.071Z,77.96
2023-03-27T14:13:47.661Z,77.89
2023-03-27T14:16:49.949Z,77.89
2023-03-27T14:19:55.542Z,77.84
2023-03-27T14:22:29.441Z,77.97
2023-03-27T14:25:05.563Z,78.13
2023-03-27T14:27:39.637Z,78.22
2023-03-27T14:30:33.341Z,78.11
2023-03-27T14:33:11.697Z,77.87
2023-03-27T14:35:44.476Z,77.86
2023-03-27T14:38:22.548Z,77.78
2023-03-27T14:40:54.881Z,77.73
2023-03-27T14:43:25.128Z,77.61
2023-03-27T14:46:11.825Z,77.48
2023-03-27T14:48:45.327Z,77.54
2023-03-27T14:51:25.264Z,77.74
2023-03-27T14:54:01.481Z,77.76
2023-03-27T14:56:37.451Z,77.79
2023-03-27T14:59:15.780Z,77.72
2023-03-27T15:01:50.003Z,77.84
2023-03-27T15:04:20.754Z,77.83
2023-03-27T15:06:51.018Z,77.77
2023-03-27T15:09:23.831Z,77.84
2023-03-27T15:11:59.374Z,77.81
2023-03-27T15:14:44.106Z,77.76
2023-03-27T15:17:20.420Z,77.65
2023-03-27T15:19:54.493Z,77.70
2023-03-27T15:22:30.058Z,77.71
2023-03-27T15:25:09.005Z,77.91
2023-03-27T15:27:43.832Z,78.26
2023-03-27T15:30:28.369Z,78.48
2023-03-27T15:33:09.138Z,78.70
2023-03-27T15:35:42.072Z,79.00
2023-03-27T15:38:19.908Z,79.31
2023-03-27T15:40:49.836Z,79.53
2023-03-27T15:43:25.904Z,79.73
2023-03-27T15:46:17.300Z,79.92
2023-03-27T15:48:56.631Z,80.18
2023-03-27T15:51:43.676Z,80.36
2023-03-27T15:54:28.349Z,80.26
2023-03-27T15:57:10.657Z,80.03
2023-03-27T15:59:51.843Z,79.53
2023-03-27T16:02:28.380Z,79.30
2023-03-27T16:05:02.180Z,79.03
2023-03-27T16:07:47.438Z,78.83
2023-03-27T16:10:31.200Z,78.85
2023-03-27T16:13:04.396Z,78.87
2023-03-27T16:15:37.715Z,78.95
2023-03-27T16:18:23.246Z,79.01
2023-03-27T16:20:55.872Z,78.98
2023-03-27T16:23:25.774Z,79.21
2023-03-27T16:26:07.303Z,79.00
2023-03-27T16:28:52.929Z,78.66
2023-03-27T16:31:24.157Z,78.28
2023-03-27T16:33:55.388Z,77.85
2023-03-27T16:36:34.180Z,77.57
2023-03-27T16:39:10.391Z,77.36
2023-03-27T16:41:40.386Z,77.21
2023-03-27T16:44:12.535Z,77.14
2023-03-27T16:46:42.573Z,76.97
2023-03-27T16:49:15.112Z,76.88
2023-03-27T16:51:47.674Z,76.81
2023-03-27T16:54:20.202Z,76.84
2023-03-27T16:56:52.457Z,76.93
2023-03-27T16:59:22.903Z,77.10
2023-03-27T17:01:52.997Z,77.04
2023-03-27T17:04:22.956Z,77.10
2023-03-27T17:06:58.055Z,77.08
2023-03-27T17:09:27.988Z,77.19
2023-03-27T17:12:00.646Z,77.25
2023-03-27T17:14:30.915Z,77.33
2023-03-27T17:17:00.768Z,77.42
2023-03-27T17:19:34.972Z,77.38
2023-03-27T17:22:07.878Z,77.41
2023-03-27T17:24:49.081Z,77.30
2023-03-27T17:27:26.889Z,77.13
2023-03-27T17:29:58.041Z,76.93
2023-03-27T17:32:30.902Z,76.88
2023-03-27T17:35:01.988Z,76.62
2023-03-27T17:37:34.495Z,76.52
2023-03-27T17:40:27.223Z,76.27
2023-03-27T17:43:08.247Z,76.13
2023-03-27T17:45:46.125Z,75.94
2023-03-27T17:48:16.581Z,75.79
2023-03-27T17:51:01.163Z,75.66
2023-03-27T17:53:39.511Z,75.64
2023-03-27T17:56:10.945Z,75.50
2023-03-27T17:58:42.111Z,75.71
2023-03-27T18:01:19.968Z,75.92
2023-03-27T18:03:53.472Z,76.36
2023-03-27T18:06:23.361Z,76.62
2023-03-27T18:08:55.792Z,76.90
2023-03-27T18:11:26.182Z,77.06
2023-03-27T18:13:56.327Z,77.41
2023-03-27T18:16:46.947Z,77.47
2023-03-27T18:19:18.292Z,77.61
2023-03-27T18:22:00.125Z,77.62
2023-03-27T18:24:32.778Z,77.75
2023-03-27T18:27:11.633Z,77.80
2023-03-27T18:29:55.409Z,77.77
2023-03-27T18:32:27.287Z,77.80
2023-03-27T18:37:43.128Z,77.88
2023-03-27T18:40:29.366Z,77.85
2023-03-27T18:43:14.267Z,77.93
2023-03-27T18:45:44.206Z,78.08
2023-03-27T18:48:25.732Z,78.03
2023-03-27T18:50:58.004Z,78.36
2023-03-27T18:53:51.960Z,78.25
2023-03-27T18:56:24.656Z,78.40
2023-03-27T18:59:00.112Z,78.40
2023-03-27T19:01:44.240Z,78.57
2023-03-27T19:04:26.918Z,78.60
2023-03-27T19:06:57.333Z,78.66
2023-03-27T19:09:51.479Z,78.68
2023-03-27T19:12:25.370Z,78.79
2023-03-27T19:17:40.514Z,79.03
2023-03-27T19:20:13.041Z,79.14
2023-03-27T19:22:42.980Z,79.17
2023-03-27T19:25:51.408Z,79.21
2023-03-27T19:28:30.004Z,79.34
2023-03-27T19:31:29.317Z,79.23
2023-03-27T19:37:51.736Z,79.48
2023-03-27T19:41:26.342Z,79.54
2023-03-27T19:44:16.142Z,79.82
2023-03-27T19:47:16.784Z,79.90
2023-03-27T19:49:46.770Z,79.98
2023-03-27T19:52:18.898Z,79.95
2023-03-27T19:55:04.180Z,79.87
2023-03-27T19:57:34.092Z,79.85
2023-03-27T20:00:14.546Z,79.95
2023-03-27T20:02:52.980Z,80.08
2023-03-27T20:08:34.116Z,80.48
2023-03-27T20:11:04.618Z,80.67
2023-03-27T20:14:11.532Z,80.87
2023-03-27T20:17:28.094Z,81.09
2023-03-27T20:20:01.044Z,81.28
2023-03-27T20:22:31.359Z,81.43
2023-03-27T20:25:01.610Z,81.60
2023-03-27T20:27:31.810Z,81.92
2023-03-27T20:30:03.844Z,82.20
2023-03-27T20:32:41.722Z,82.35
2023-03-27T20:35:23.743Z,82.53
2023-03-27T20:37:58.062Z,82.84
2023-03-27T20:40:51.942Z,82.88
2023-03-27T20:43:24.489Z,83.09
2023-03-27T20:45:59.263Z,83.17
2023-03-27T20:48:42.882Z,83.20
2023-03-27T20:51:25.025Z,83.36
2023-03-27T20:53:58.317Z,83.80
2023-03-27T20:56:31.077Z,83.89
2023-03-27T20:59:00.987Z,84.15
2023-03-27T21:01:34.530Z,84.22
2023-03-27T21:04:07.132Z,84.50
2023-03-27T21:06:37.080Z,84.62
2023-03-27T21:09:07.692Z,84.66
2023-03-27T21:11:39.855Z,84.84
2023-03-27T21:14:09.822Z,84.93
2023-03-27T21:16:40.403Z,85.16
2023-03-27T21:19:13.280Z,85.22
2023-03-27T21:21:45.479Z,85.39
2023-03-27T21:24:16.170Z,85.48
2023-03-27T21:26:46.099Z,85.52
2023-03-27T21:29:16.078Z,85.48
2023-03-27T21:31:49.331Z,85.51
2023-03-27T21:34:22.850Z,85.58
2023-03-27T21:36:53.028Z,85.77
2023-03-27T21:39:23.122Z,85.94
2023-03-27T21:41:53.401Z,85.97
2023-03-27T21:44:23.373Z,86.21
2023-03-27T21:46:53.393Z,86.22
2023-03-27T21:49:28.806Z,86.15
2023-03-27T21:51:58.845Z,86.31
2023-03-27T21:54:29.038Z,86.15
2023-03-27T21:57:01.026Z,86.27
2023-03-27T21:59:33.425Z,86.20
2023-03-27T22:02:03.350Z,86.16
2023-03-27T22:04:37.104Z,86.08
2023-03-27T22:07:09.010Z,86.02
2023-03-27T22:09:38.915Z,85.90
2023-03-27T22:12:11.514Z,85.80
2023-03-27T22:14:45.358Z,85.60
2023-03-27T22:17:15.876Z,85.57
2023-03-27T22:19:56.246Z,85.57
2023-03-27T22:22:26.369Z,85.33
2023-03-27T22:24:56.443Z,85.25
2023-03-27T22:27:35.471Z,85.15
2023-03-27T22:30:05.407Z,85.28
2023-03-27T22:32:35.505Z,85.15
2023-03-27T22:35:11.454Z,85.09
2023-03-27T22:37:41.686Z,85.06
2023-03-27T22:40:12.512Z,85.09
2023-03-27T22:42:42.271Z,85.02
2023-03-27T22:45:12.950Z,85.07
2023-03-27T22:47:44.182Z,84.90
2023-03-27T22:50:16.825Z,84.85
2023-03-27T22:52:53.737Z,84.86
2023-03-27T22:55:23.528Z,84.74
2023-03-27T22:57:53.298Z,84.87
2023-03-27T23:00:28.503Z,84.83
2023-03-27T23:03:02.355Z,84.68
2023-03-27T23:05:44.239Z,84.73
2023-03-27T23:08:14.431Z,84.59
2023-03-27T23:10:44.384Z,84.51
2023-03-27T23:13:14.852Z,84.42
2023-03-27T23:15:46.245Z,84.23
2023-03-27T23:18:16.047Z,84.27
2023-03-27T23:20:48.447Z,84.04
2023-03-27T23:23:18.253Z,83.87
2023-03-27T23:25:52.689Z,83.71
2023-03-27T23:28:30.599Z,83.55
2023-03-27T23:31:02.377Z,83.38
2023-03-27T23:33:36.747Z,83.26
2023-03-27T23:36:13.313Z,83.08
2023-03-27T23:38:43.603Z,83.06
2023-03-27T23:41:16.478Z,82.94
2023-03-27T23:43:48.261Z,82.86
2023-03-27T23:46:18.972Z,82.82
2023-03-27T23:48:52.544Z,83.02
2023-03-27T23:51:25.236Z,82.95
2023-03-27T23:53:55.109Z,82.99
2023-03-27T23:56:32.356Z,82.97
2023-03-27T23:59:08.327Z,82.97
